Time;durP1;ratioP1;P1;durP2;ratioP2;P2;SDS_P1;SDS_P2;PMS_P1;PMS_P2;Temp;Humidity;BMP_temperature;BMP_pressure;BME280_temperature;BME280_humidity;BME280_pressure;Samples;Min_cycle;Max_cycle;Signal;HPM_P1;HPM_P2
2023/09/20 00:02:18;;;;;;;6.68;2.55;;;19.10;99.90;;;;;;5069104;28;20025;-72
2023/09/20 00:04:47;;;;;;;6.28;2.78;;;19.00;99.90;;;;;;5075493;28;20124;-72
2023/09/20 00:07:13;;;;;;;5.85;2.50;;;19.00;99.90;;;;;;5071741;28;20020;-72
2023/09/20 00:09:39;;;;;;;7.38;2.40;;;19.00;99.90;;;;;;5076504;28;20710;-73
2023/09/20 00:12:05;;;;;;;7.35;2.55;;;18.90;99.90;;;;;;5071450;28;20063;-73
2023/09/20 00:14:31;;;;;;;6.95;2.42;;;18.80;99.90;;;;;;5078139;28;20370;-72
2023/09/20 00:17:00;;;;;;;6.60;2.35;;;18.90;99.90;;;;;;5071814;28;20035;-72
2023/09/20 00:19:26;;;;;;;7.82;3.22;;;18.80;99.90;;;;;;5073454;28;20021;-72
2023/09/20 00:21:52;;;;;;;5.70;2.92;;;18.80;99.90;;;;;;5065232;28;20078;-72
2023/09/20 00:24:18;;;;;;;15.00;2.78;;;18.70;99.90;;;;;;5073823;28;20113;-72
2023/09/20 00:26:43;;;;;;;6.57;2.65;;;18.80;99.90;;;;;;5070461;28;20443;-72
2023/09/20 00:29:09;;;;;;;3.60;2.20;;;18.80;99.90;;;;;;5073118;28;20547;-73
2023/09/20 00:31:35;;;;;;;7.43;2.67;;;18.70;99.90;;;;;;5074317;28;20032;-72
2023/09/20 00:34:03;;;;;;;7.47;2.85;;;18.70;99.90;;;;;;5070630;28;20036;-73
2023/09/20 00:36:30;;;;;;;6.07;2.50;;;18.70;99.90;;;;;;5077497;28;20032;-72
2023/09/20 00:38:57;;;;;;;8.50;3.10;;;18.80;99.90;;;;;;5073012;28;20051;-73
2023/09/20 00:41:23;;;;;;;7.88;2.72;;;18.80;99.90;;;;;;5078343;28;20024;-72
2023/09/20 00:43:52;;;;;;;7.15;2.85;;;18.80;99.90;;;;;;5068965;28;20048;-71
2023/09/20 00:46:19;;;;;;;3.97;2.45;;;18.70;99.90;;;;;;5075523;28;20017;-72
2023/09/20 00:48:46;;;;;;;6.40;2.95;;;18.70;99.90;;;;;;5072556;28;20112;-72
2023/09/20 00:51:14;;;;;;;7.20;3.15;;;18.70;99.90;;;;;;5077309;28;20012;-72
2023/09/20 00:53:41;;;;;;;7.18;2.60;;;18.70;99.90;;;;;;5075612;28;20033;-72
2023/09/20 00:56:09;;;;;;;6.93;2.60;;;18.70;99.90;;;;;;5076267;28;20029;-72
2023/09/20 00:58:36;;;;;;;6.88;2.63;;;18.70;99.90;;;;;;5077523;28;20021;-72
2023/09/20 01:01:04;;;;;;;8.23;3.17;;;18.70;99.90;;;;;;5073026;28;20415;-72
2023/09/20 01:03:35;;;;;;;7.85;3.08;;;18.60;99.90;;;;;;5079936;28;20047;-72
2023/09/20 01:06:05;;;;;;;5.18;2.60;;;18.60;99.90;;;;;;5072238;28;20107;-72
2023/09/20 01:08:33;;;;;;;6.95;3.38;;;18.60;99.90;;;;;;5081460;28;20028;-72
2023/09/20 01:11:00;;;;;;;8.48;2.88;;;18.60;99.90;;;;;;5076954;28;20128;-72
2023/09/20 01:13:26;;;;;;;8.02;3.20;;;18.60;99.90;;;;;;5082881;28;20028;-72
2023/09/20 01:15:53;;;;;;;8.43;2.70;;;18.60;99.90;;;;;;5074772;28;20555;-72
2023/09/20 01:18:19;;;;;;;5.35;2.50;;;18.50;99.90;;;;;;5076077;28;20033;-72
2023/09/20 01:20:45;;;;;;;6.35;2.83;;;18.60;99.90;;;;;;5078033;28;20396;-72
2023/09/20 01:23:10;;;;;;;5.10;2.83;;;18.60;99.90;;;;;;5075934;28;20025;-72
2023/09/20 01:25:39;;;;;;;11.57;3.03;;;18.60;99.90;;;;;;5070071;28;20031;-72
2023/09/20 01:28:08;;;;;;;6.55;2.58;;;18.60;99.90;;;;;;5083239;28;20032;-74
2023/09/20 01:30:36;;;;;;;8.80;2.95;;;18.50;99.90;;;;;;5070528;28;20016;-72
2023/09/20 01:33:04;;;;;;;7.30;2.90;;;18.70;99.90;;;;;;5078746;28;20032;-72
2023/09/20 01:35:31;;;;;;;7.97;3.58;;;18.60;99.90;;;;;;5076740;28;20038;-72
2023/09/20 01:37:58;;;;;;;11.63;3.30;;;18.70;99.90;;;;;;5074104;28;20028;-72
2023/09/20 01:40:26;;;;;;;11.23;2.88;;;18.60;99.90;;;;;;5077353;28;20025;-72
2023/09/20 01:42:52;;;;;;;12.23;3.08;;;18.60;99.90;;;;;;5081964;28;20028;-74
2023/09/20 01:45:19;;;;;;;6.82;2.75;;;18.60;99.90;;;;;;5073919;28;20028;-72
2023/09/20 01:48:00;;;;;;;9.60;2.35;;;18.60;99.90;;;;;;5070944;28;20024;-72
2023/09/20 01:50:26;;;;;;;6.70;2.80;;;18.60;99.90;;;;;;5074180;28;20027;-72
2023/09/20 01:52:54;;;;;;;9.38;2.38;;;18.70;99.90;;;;;;5069926;28;20025;-72
2023/09/20 01:55:21;;;;;;;7.72;2.63;;;18.80;99.90;;;;;;5082141;28;20107;-72
2023/09/20 01:57:51;;;;;;;7.35;2.55;;;18.70;99.90;;;;;;5071017;28;20017;-73
2023/09/20 02:00:22;;;;;;;6.13;2.53;;;18.80;99.90;;;;;;5075214;28;20021;-72
2023/09/20 02:02:53;;;;;;;9.57;2.95;;;18.80;99.90;;;;;;5077387;28;20087;-72
2023/09/20 02:05:20;;;;;;;7.10;2.72;;;18.80;99.90;;;;;;5075554;28;20032;-72
2023/09/20 02:07:47;;;;;;;7.03;2.78;;;18.80;99.90;;;;;;5079836;28;20024;-72
2023/09/20 02:10:16;;;;;;;6.82;2.95;;;18.80;99.90;;;;;;5072066;28;20493;-72
2023/09/20 02:12:46;;;;;;;6.43;3.28;;;18.80;99.90;;;;;;5083954;28;20020;-72
2023/09/20 02:15:13;;;;;;;5.75;3.20;;;18.80;99.90;;;;;;5071634;28;20445;-72
2023/09/20 02:17:39;;;;;;;6.85;2.30;;;18.70;99.90;;;;;;5074245;28;20446;-72
2023/09/20 02:20:09;;;;;;;9.55;2.58;;;18.70;99.90;;;;;;5079479;28;20099;-72
2023/09/20 02:22:36;;;;;;;7.28;2.80;;;18.80;99.90;;;;;;5077285;28;20013;-72
2023/09/20 02:25:05;;;;;;;6.55;2.88;;;18.80;99.90;;;;;;5078257;28;20043;-72
2023/09/20 02:27:31;;;;;;;6.65;2.92;;;18.80;99.90;;;;;;5080018;28;20039;-73
2023/09/20 02:29:57;;;;;;;8.27;3.30;;;18.80;99.90;;;;;;5075239;28;20017;-72
2023/09/20 02:32:26;;;;;;;8.43;2.80;;;18.70;99.90;;;;;;5073344;28;20055;-72
2023/09/20 02:34:52;;;;;;;10.07;3.00;;;18.80;99.90;;;;;;5079318;28;20023;-72
2023/09/20 02:37:19;;;;;;;6.97;2.45;;;18.70;99.90;;;;;;5075471;28;20024;-72
2023/09/20 02:39:45;;;;;;;6.15;2.95;;;18.70;99.90;;;;;;5069850;28;20032;-72
2023/09/20 02:42:11;;;;;;;9.40;2.70;;;18.70;99.90;;;;;;5077861;28;20082;-72
2023/09/20 02:44:38;;;;;;;5.72;2.50;;;18.60;99.90;;;;;;5074373;28;20060;-72
2023/09/20 02:47:03;;;;;;;9.40;2.35;;;18.50;99.90;;;;;;5075566;28;20056;-72
2023/09/20 02:49:30;;;;;;;12.07;2.92;;;18.50;99.90;;;;;;5074665;28;20465;-71
2023/09/20 02:51:56;;;;;;;6.18;2.45;;;18.40;99.90;;;;;;5076544;28;20020;-72
2023/09/20 02:54:22;;;;;;;7.68;2.80;;;18.40;99.90;;;;;;5074339;28;20024;-72
2023/09/20 02:56:51;;;;;;;7.00;2.38;;;18.50;99.90;;;;;;5074938;28;20461;-72
2023/09/20 02:59:20;;;;;;;6.50;2.60;;;18.50;99.90;;;;;;5075538;28;20480;-72
2023/09/20 03:01:49;;;;;;;6.40;2.38;;;18.50;99.90;;;;;;5071294;28;20032;-73
2023/09/20 03:04:15;;;;;;;10.30;2.60;;;18.40;99.90;;;;;;5080817;28;20028;-72
2023/09/20 03:06:44;;;;;;;7.32;2.50;;;18.50;99.90;;;;;;5067794;28;20126;-72
2023/09/20 03:09:10;;;;;;;7.35;2.70;;;18.40;99.90;;;;;;5069768;28;20043;-72
2023/09/20 03:11:37;;;;;;;5.28;2.42;;;18.40;99.90;;;;;;5079200;28;20024;-72
2023/09/20 03:14:10;;;;;;;6.18;2.53;;;18.30;99.90;;;;;;5069454;28;20027;-72
2023/09/20 03:16:36;;;;;;;9.80;2.95;;;18.30;99.90;;;;;;5074579;28;20017;-72
2023/09/20 03:19:02;;;;;;;8.00;2.70;;;18.20;99.90;;;;;;5078192;28;20032;-72
2023/09/20 03:21:28;;;;;;;6.90;2.35;;;18.30;99.90;;;;;;5071016;28;20027;-72
2023/09/20 03:23:55;;;;;;;5.10;2.35;;;18.20;99.90;;;;;;5081194;28;20036;-72
2023/09/20 03:26:21;;;;;;;7.30;3.10;;;18.20;99.90;;;;;;5076890;28;20074;-72
2023/09/20 03:28:48;;;;;;;6.93;2.55;;;18.20;99.90;;;;;;5079607;28;20032;-72
2023/09/20 03:31:15;;;;;;;6.72;2.50;;;18.20;99.90;;;;;;5063093;28;20029;-72
2023/09/20 03:33:42;;;;;;;7.25;2.90;;;18.20;99.90;;;;;;5072908;28;20111;-72
2023/09/20 03:36:15;;;;;;;6.20;2.60;;;18.30;99.90;;;;;;5077720;28;20016;-71
2023/09/20 03:38:41;;;;;;;8.10;2.88;;;18.20;99.90;;;;;;5069888;28;20031;-72
2023/09/20 03:41:07;;;;;;;8.02;2.72;;;18.10;99.90;;;;;;5077290;28;20086;-72
2023/09/20 03:43:33;;;;;;;6.65;2.25;;;18.10;99.90;;;;;;5069070;28;20459;-72
2023/09/20 03:46:01;;;;;;;8.15;2.50;;;18.20;99.90;;;;;;5075824;28;20028;-72
2023/09/20 03:48:27;;;;;;;6.97;2.65;;;18.10;99.90;;;;;;5072488;28;20098;-72
2023/09/20 03:50:53;;;;;;;6.00;2.45;;;18.10;99.90;;;;;;5083418;28;20081;-72
2023/09/20 03:53:19;;;;;;;7.15;2.78;;;18.10;99.90;;;;;;5079524;28;20035;-72
2023/09/20 03:55:45;;;;;;;7.75;2.63;;;18.00;99.90;;;;;;5069239;28;20020;-72
2023/09/20 03:58:11;;;;;;;6.05;2.50;;;18.00;99.90;;;;;;5075314;28;20110;-72
2023/09/20 04:00:38;;;;;;;5.45;2.47;;;18.00;99.90;;;;;;5077176;28;20111;-72
2023/09/20 04:03:05;;;;;;;4.60;2.67;;;18.10;99.90;;;;;;5074169;28;20028;-71
2023/09/20 04:05:33;;;;;;;6.05;2.38;;;18.00;99.90;;;;;;5075708;28;20029;-72
2023/09/20 04:08:00;;;;;;;8.43;2.63;;;18.00;99.90;;;;;;5071105;28;20040;-72
2023/09/20 04:10:27;;;;;;;8.93;2.97;;;18.00;99.90;;;;;;5074531;28;20032;-72
2023/09/20 04:12:53;;;;;;;5.63;2.60;;;18.00;99.90;;;;;;5069454;28;20041;-72
2023/09/20 04:15:19;;;;;;;4.72;2.28;;;18.00;99.90;;;;;;5068540;28;20086;-71
2023/09/20 04:17:48;;;;;;;5.35;2.40;;;18.00;99.90;;;;;;5081441;28;20465;-72
2023/09/20 04:20:14;;;;;;;6.05;2.72;;;18.10;99.90;;;;;;5071431;28;20029;-71
2023/09/20 04:22:42;;;;;;;7.55;2.30;;;18.00;99.90;;;;;;5066724;28;20036;-72
2023/09/20 04:25:10;;;;;;;9.98;2.47;;;18.10;99.90;;;;;;5082530;28;20488;-72
2023/09/20 04:27:36;;;;;;;5.43;2.40;;;18.00;99.90;;;;;;5071718;28;20103;-72
2023/09/20 04:30:03;;;;;;;8.73;2.55;;;18.00;99.90;;;;;;5074973;28;20029;-72
2023/09/20 04:32:29;;;;;;;6.80;2.60;;;17.90;99.90;;;;;;5087347;28;20505;-71
2023/09/20 04:34:56;;;;;;;6.32;2.75;;;17.90;99.90;;;;;;5068568;28;20071;-72
2023/09/20 04:37:25;;;;;;;5.07;2.40;;;18.00;99.90;;;;;;5074030;28;20090;-72
2023/09/20 04:39:51;;;;;;;8.70;2.70;;;18.00;99.90;;;;;;5078889;28;20021;-72
2023/09/20 04:42:17;;;;;;;7.22;2.80;;;17.90;99.90;;;;;;5073316;28;20031;-71
2023/09/20 04:44:43;;;;;;;8.02;2.95;;;18.00;99.90;;;;;;5073680;28;20032;-72
2023/09/20 04:47:13;;;;;;;5.15;2.20;;;18.00;99.90;;;;;;5078411;28;20028;-71
2023/09/20 04:49:38;;;;;;;5.28;2.55;;;17.90;99.90;;;;;;5069752;28;20094;-72
2023/09/20 04:52:05;;;;;;;6.30;2.90;;;17.80;99.90;;;;;;5080619;28;20052;-71
2023/09/20 04:54:33;;;;;;;7.40;2.60;;;17.80;99.90;;;;;;5084579;28;20031;-72
2023/09/20 04:56:59;;;;;;;6.78;2.80;;;17.90;99.90;;;;;;5072966;28;20029;-72
2023/09/20 04:59:25;;;;;;;5.68;2.53;;;17.90;99.90;;;;;;5075922;28;20032;-72
2023/09/20 05:01:51;;;;;;;4.68;2.53;;;17.90;99.90;;;;;;5074128;28;20037;-72
2023/09/20 05:04:19;;;;;;;6.95;2.42;;;17.80;99.90;;;;;;5072767;28;20165;-72
2023/09/20 05:06:45;;;;;;;6.38;2.58;;;17.80;99.90;;;;;;5080005;28;20024;-72
2023/09/20 05:09:12;;;;;;;6.50;2.47;;;17.90;99.90;;;;;;5077573;28;20036;-72
2023/09/20 05:11:38;;;;;;;5.57;2.42;;;17.70;99.90;;;;;;5083225;28;20475;-72
2023/09/20 05:14:07;;;;;;;5.13;2.50;;;17.70;99.90;;;;;;5079060;28;20584;-72
2023/09/20 05:16:33;;;;;;;7.45;2.78;;;17.80;99.90;;;;;;5077711;28;20024;-71
2023/09/20 05:18:59;;;;;;;7.25;3.28;;;17.80;99.90;;;;;;5066355;28;20032;-72
2023/09/20 05:21:25;;;;;;;5.32;2.88;;;17.80;99.90;;;;;;5079686;28;20469;-72
2023/09/20 05:23:51;;;;;;;7.00;2.97;;;17.80;99.90;;;;;;5072488;28;20047;-72
2023/09/20 05:26:18;;;;;;;5.65;3.13;;;17.90;99.90;;;;;;5075241;28;20020;-71
2023/09/20 05:28:44;;;;;;;5.32;2.85;;;17.80;99.90;;;;;;5073535;28;20028;-71
2023/09/20 05:31:10;;;;;;;5.68;2.10;;;17.80;99.90;;;;;;5078904;28;20068;-72
2023/09/20 05:33:36;;;;;;;5.30;2.50;;;17.80;99.90;;;;;;5073195;28;20123;-72
2023/09/20 05:36:05;;;;;;;8.80;3.00;;;17.80;99.90;;;;;;5076039;28;20028;-71
2023/09/20 05:38:31;;;;;;;6.68;2.67;;;17.80;99.90;;;;;;5070757;28;20475;-71
2023/09/20 05:40:56;;;;;;;3.35;2.80;;;17.80;99.90;;;;;;5083601;28;20104;-71
2023/09/20 05:43:23;;;;;;;7.32;2.67;;;17.90;99.90;;;;;;5067239;28;20032;-72
2023/09/20 05:45:49;;;;;;;6.22;3.13;;;17.90;99.90;;;;;;5078531;28;20032;-72
2023/09/20 05:48:16;;;;;;;11.05;3.25;;;17.90;99.90;;;;;;5083164;28;20028;-72
2023/09/20 05:50:42;;;;;;;6.88;2.60;;;17.90;99.90;;;;;;5070218;28;20023;-72
2023/09/20 05:53:12;;;;;;;6.32;2.42;;;17.90;99.90;;;;;;5075298;28;20020;-72
2023/09/20 05:55:38;;;;;;;9.60;2.95;;;17.90;99.90;;;;;;5069500;28;20036;-72
2023/09/20 05:58:05;;;;;;;5.10;2.70;;;17.90;99.90;;;;;;5076714;28;20013;-72
2023/09/20 06:00:30;;;;;;;12.50;3.03;;;17.90;99.90;;;;;;5075249;28;20031;-71
2023/09/20 06:02:57;;;;;;;9.55;2.80;;;17.90;99.90;;;;;;5073166;28;20380;-73
2023/09/20 06:05:26;;;;;;;7.55;2.95;;;17.90;99.90;;;;;;5069239;28;20032;-72
2023/09/20 06:07:55;;;;;;;7.88;3.15;;;17.90;99.90;;;;;;5072056;28;20031;-72
2023/09/20 06:10:22;;;;;;;8.07;3.28;;;17.90;99.90;;;;;;5082952;28;20032;-72
2023/09/20 06:12:52;;;;;;;8.18;3.22;;;17.90;99.90;;;;;;5076468;28;20047;-72
2023/09/20 06:15:19;;;;;;;7.63;2.53;;;17.90;99.90;;;;;;5068628;28;20028;-72
2023/09/20 06:17:47;;;;;;;5.97;2.65;;;18.00;99.90;;;;;;5075735;28;20377;-72
2023/09/20 06:20:19;;;;;;;5.32;2.47;;;18.00;99.90;;;;;;5075218;28;20059;-74
2023/09/20 06:22:46;;;;;;;4.65;2.72;;;18.00;99.90;;;;;;5076803;28;20104;-72
2023/09/20 06:25:13;;;;;;;6.18;2.85;;;18.00;99.90;;;;;;5074525;28;20028;-72
2023/09/20 06:27:39;;;;;;;2.80;2.47;;;18.10;99.90;;;;;;5079476;28;20086;-72
2023/09/20 06:30:12;;;;;;;7.85;2.63;;;17.90;99.90;;;;;;5077977;28;20028;-73
2023/09/20 06:32:38;;;;;;;;;;;18.00;99.90;;;;;;5065735;28;20028;-72
2023/09/20 06:35:04;;;;;;;7.93;2.85;;;18.00;99.90;;;;;;5079696;28;20394;-72
2023/09/20 06:37:30;;;;;;;5.18;2.63;;;18.10;99.90;;;;;;5074121;28;20087;-72
2023/09/20 06:39:56;;;;;;;4.63;2.35;;;18.10;99.90;;;;;;5071135;28;20489;-72
2023/09/20 06:42:25;;;;;;;7.32;2.30;;;18.10;99.90;;;;;;5066580;28;20090;-71
2023/09/20 06:44:55;;;;;;;3.58;2.78;;;18.10;99.90;;;;;;5076094;28;20044;-72
2023/09/20 06:47:22;;;;;;;7.93;3.42;;;18.10;99.90;;;;;;5084087;28;20111;-71
2023/09/20 06:49:47;;;;;;;4.28;2.42;;;18.00;99.90;;;;;;5076021;28;20020;-71
2023/09/20 06:52:13;;;;;;;7.05;2.65;;;18.10;99.90;;;;;;5077081;28;20028;-71
2023/09/20 06:54:39;;;;;;;4.38;2.50;;;18.10;99.90;;;;;;5068009;28;20066;-72
2023/09/20 06:57:05;;;;;;;5.45;2.47;;;18.10;99.90;;;;;;5071879;28;20024;-71
2023/09/20 06:59:34;;;;;;;6.40;3.22;;;18.10;99.90;;;;;;5075800;28;20029;-72
2023/09/20 07:02:00;;;;;;;8.38;3.08;;;18.20;99.90;;;;;;5082786;28;20036;-71
2023/09/20 07:04:27;;;;;;;7.47;2.80;;;18.10;99.90;;;;;;5074209;28;20473;-72
2023/09/20 07:06:57;;;;;;;4.90;2.75;;;18.20;99.90;;;;;;5064150;28;20496;-72
2023/09/20 07:09:23;;;;;;;5.13;2.45;;;18.20;99.90;;;;;;5069513;28;20068;-73
2023/09/20 07:11:53;;;;;;;4.72;2.65;;;18.30;99.90;;;;;;5065870;28;20025;-75
2023/09/20 07:14:23;;;;;;;5.95;2.40;;;18.40;99.90;;;;;;5071239;28;20107;-73
2023/09/20 07:16:50;;;;;;;6.18;2.70;;;18.50;99.90;;;;;;5078867;28;20477;-72
2023/09/20 07:19:20;;;;;;;7.13;2.70;;;18.50;99.90;;;;;;5070172;28;20060;-72
2023/09/20 07:21:45;;;;;;;6.82;2.90;;;18.50;99.90;;;;;;5065795;28;20496;-73
2023/09/20 07:24:15;;;;;;;5.22;2.83;;;18.50;99.90;;;;;;5076452;28;20036;-74
2023/09/20 07:26:45;;;;;;;5.53;3.22;;;18.60;99.90;;;;;;5070152;28;20028;-71
2023/09/20 07:29:14;;;;;;;4.68;2.53;;;18.60;99.90;;;;;;5067540;28;20024;-72
2023/09/20 07:31:41;;;;;;;11.23;3.33;;;18.60;99.90;;;;;;5077561;28;20016;-72
2023/09/20 07:34:06;;;;;;;8.63;3.05;;;18.60;99.90;;;;;;5082799;28;20468;-72
2023/09/20 07:36:40;;;;;;;6.70;2.90;;;18.60;99.90;;;;;;5078916;28;20112;-71
2023/09/20 07:39:08;;;;;;;6.82;2.60;;;18.70;99.90;;;;;;5073901;28;20036;-71
2023/09/20 07:41:36;;;;;;;7.35;3.13;;;18.80;99.90;;;;;;5068973;28;20031;-71
2023/09/20 07:44:05;;;;;;;8.77;2.83;;;18.70;99.90;;;;;;5071387;28;20028;-72
2023/09/20 07:46:34;;;;;;;9.05;3.45;;;18.90;99.90;;;;;;5077633;28;20054;-72
2023/09/20 07:49:09;;;;;;;8.43;3.08;;;18.90;99.90;;;;;;5078094;28;20100;-73
2023/09/20 07:51:39;;;;;;;9.77;2.97;;;19.00;99.90;;;;;;5070468;28;20377;-73
2023/09/20 07:54:09;;;;;;;4.90;2.90;;;19.10;99.90;;;;;;5077426;28;20704;-72
2023/09/20 07:56:34;;;;;;;8.55;3.28;;;19.20;99.90;;;;;;5069479;28;20012;-72
2023/09/20 07:59:02;;;;;;;6.15;2.53;;;19.20;99.90;;;;;;5078986;28;20089;-73
2023/09/20 08:01:29;;;;;;;7.90;2.95;;;19.30;99.90;;;;;;5071805;28;20105;-74
2023/09/20 08:03:58;;;;;;;8.73;3.28;;;19.30;99.90;;;;;;5068241;28;20043;-72
2023/09/20 08:06:29;;;;;;;6.55;2.97;;;19.40;99.90;;;;;;5078742;28;20016;-71
2023/09/20 08:08:58;;;;;;;4.95;3.22;;;19.40;99.90;;;;;;5072377;28;20385;-71
2023/09/20 08:11:24;;;;;;;4.35;2.70;;;19.30;99.90;;;;;;5073366;28;20393;-72
2023/09/20 08:13:59;;;;;;;5.18;2.70;;;19.40;99.90;;;;;;5066593;28;20032;-75
2023/09/20 08:16:31;;;;;;;8.63;2.72;;;19.40;99.90;;;;;;5077265;28;20020;-72
2023/09/20 08:19:03;;;;;;;4.45;2.35;;;19.50;99.90;;;;;;5075116;28;20028;-74
2023/09/20 08:21:32;;;;;;;6.93;3.00;;;19.50;99.90;;;;;;5071769;28;20111;-72
2023/09/20 09:00:18;;;;;;;6.22;2.13;;;20.40;99.90;;;;;;5071396;28;20105;-72
2023/09/20 09:02:44;;;;;;;10.40;3.00;;;20.40;99.90;;;;;;5079730;28;20035;-71
2023/09/20 09:05:12;;;;;;;6.80;2.40;;;20.40;99.90;;;;;;5073771;28;20058;-72
2023/09/20 09:07:39;;;;;;;4.00;2.20;;;20.50;99.90;;;;;;5061475;28;20024;-74
2023/09/20 09:10:05;;;;;;;4.70;2.55;;;20.60;99.90;;;;;;5075095;28;20028;-74
2023/09/20 09:12:31;;;;;;;3.72;2.22;;;20.70;99.90;;;;;;5078416;28;20063;-71
2023/09/20 09:14:57;;;;;;;4.20;2.17;;;20.80;99.90;;;;;;5076257;28;20133;-70
2023/09/20 09:17:22;;;;;;;4.18;2.33;;;20.90;99.90;;;;;;5079724;28;20028;-71
2023/09/20 09:19:48;;;;;;;5.55;2.38;;;20.90;99.90;;;;;;5076882;28;20370;-71
2023/09/20 09:22:15;;;;;;;2.92;1.98;;;21.00;99.90;;;;;;5080934;28;20024;-70
2023/09/20 09:24:47;;;;;;;6.22;2.38;;;21.00;99.90;;;;;;5077842;28;20113;-71
2023/09/20 09:27:15;;;;;;;2.67;1.67;;;21.10;99.90;;;;;;5079351;28;20020;-70
2023/09/20 09:29:46;;;;;;;4.95;2.10;;;21.20;99.90;;;;;;5081749;28;20025;-72
2023/09/20 09:32:13;;;;;;;5.63;2.00;;;21.40;99.90;;;;;;5075040;28;20020;-71
2023/09/20 09:34:41;;;;;;;3.78;1.58;;;21.50;99.90;;;;;;5075106;28;20074;-71
2023/09/20 09:37:07;;;;;;;2.47;1.83;;;21.40;99.90;;;;;;5071306;28;20118;-71
2023/09/20 09:39:33;;;;;;;3.70;1.17;;;21.30;99.90;;;;;;5072776;28;20436;-72
2023/09/20 09:42:00;;;;;;;2.78;1.58;;;21.30;99.90;;;;;;5078981;28;20463;-71
2023/09/20 09:44:26;;;;;;;3.90;1.50;;;21.40;99.90;;;;;;5078874;28;20040;-72
2023/09/20 09:46:54;;;;;;;3.88;1.33;;;21.70;99.90;;;;;;5068392;28;20024;-72
2023/09/20 09:49:20;;;;;;;4.43;1.65;;;21.80;99.90;;;;;;5073619;28;20016;-72
2023/09/20 09:51:54;;;;;;;1.80;1.33;;;21.80;99.90;;;;;;5077257;28;20016;-71
2023/09/20 09:54:21;;;;;;;6.35;1.67;;;21.90;99.90;;;;;;5077598;28;20025;-72
2023/09/20 09:56:48;;;;;;;2.55;1.88;;;21.90;99.90;;;;;;5085475;28;20027;-75
2023/09/20 09:59:14;;;;;;;3.28;1.25;;;21.90;99.90;;;;;;5072146;28;20021;-71
2023/09/20 10:01:41;;;;;;;2.45;1.20;;;21.80;99.90;;;;;;5071733;28;20079;-74
2023/09/20 10:04:10;;;;;;;2.33;1.35;;;21.80;99.90;;;;;;5076836;28;20116;-73
2023/09/20 10:07:02;;;;;;;3.78;1.60;;;21.90;99.90;;;;;;5060258;28;20425;-71
2023/09/20 10:09:35;;;;;;;2.83;1.40;;;21.90;99.90;;;;;;5074833;28;20024;-71
2023/09/20 10:12:03;;;;;;;3.75;1.48;;;22.00;99.90;;;;;;5070228;28;20130;-71
2023/09/20 10:14:31;;;;;;;2.42;1.02;;;22.00;99.90;;;;;;5081100;28;20472;-72
2023/09/20 10:16:57;;;;;;;5.45;1.52;;;22.00;99.90;;;;;;5070324;28;20036;-71
2023/09/20 10:19:23;;;;;;;5.20;1.50;;;21.80;99.90;;;;;;5069143;28;20024;-72
2023/09/20 10:22:09;;;;;;;2.90;1.38;;;21.80;99.90;;;;;;5079335;28;20028;-71
2023/09/20 10:24:55;;;;;;;3.97;1.13;;;21.80;99.90;;;;;;5065440;28;20056;-72
2023/09/20 10:27:22;;;;;;;4.75;1.98;;;21.80;99.90;;;;;;5081165;28;20020;-73
2023/09/20 10:30:10;;;;;;;5.03;1.15;;;21.90;99.90;;;;;;5075830;28;20032;-74
2023/09/20 10:32:47;;;;;;;2.70;1.42;;;21.80;99.90;;;;;;5068056;28;20381;-74
2023/09/20 10:35:22;;;;;;;1.35;1.10;;;21.80;99.90;;;;;;5073181;28;20492;-74
2023/09/20 10:38:25;;;;;;;3.17;1.30;;;21.90;99.90;;;;;;5078702;28;20029;-74
2023/09/20 10:40:55;;;;;;;1.88;1.10;;;21.90;99.90;;;;;;5079078;28;20028;-74
2023/09/20 10:43:25;;;;;;;3.22;1.50;;;22.00;99.90;;;;;;5068876;28;20024;-73
2023/09/20 10:45:55;;;;;;;2.05;1.30;;;21.80;99.90;;;;;;5072650;28;20058;-73
2023/09/20 10:48:26;;;;;;;3.17;1.55;;;21.90;99.90;;;;;;5071175;28;20477;-73
2023/09/20 10:50:57;;;;;;;2.88;1.23;;;21.70;99.90;;;;;;5068216;28;20121;-72
2023/09/20 10:53:52;;;;;;;4.72;1.45;;;21.80;99.90;;;;;;5082573;28;20417;-73
2023/09/20 10:56:53;;;;;;;3.80;1.23;;;21.80;99.90;;;;;;5069137;28;20020;-72
2023/09/20 10:59:21;;;;;;;3.10;1.15;;;21.90;99.90;;;;;;5069607;28;20465;-72
2023/09/20 11:02:02;;;;;;;3.00;1.33;;;22.00;99.90;;;;;;5064885;28;20061;-73
2023/09/20 11:04:29;;;;;;;2.17;1.33;;;22.00;99.90;;;;;;5075536;28;20101;-72
2023/09/20 11:06:55;;;;;;;5.85;1.60;;;22.20;99.90;;;;;;5069067;28;20024;-72
2023/09/20 11:09:25;;;;;;;3.78;1.60;;;22.10;99.90;;;;;;5069909;28;20039;-72
2023/09/20 11:11:51;;;;;;;2.15;1.35;;;22.20;99.90;;;;;;5069821;28;20056;-71
2023/09/20 11:14:21;;;;;;;4.65;1.20;;;22.10;99.90;;;;;;5069310;28;20101;-71
2023/09/20 11:16:47;;;;;;;4.75;1.73;;;22.00;99.90;;;;;;5085423;28;20024;-72
2023/09/20 11:19:13;;;;;;;2.60;1.30;;;22.00;99.90;;;;;;5075483;28;20028;-72
2023/09/20 11:21:42;;;;;;;4.13;1.10;;;22.00;99.90;;;;;;5075131;28;20366;-73
2023/09/20 11:24:10;;;;;;;5.93;1.35;;;22.00;99.90;;;;;;5069007;28;20024;-72
2023/09/20 11:26:36;;;;;;;2.20;1.13;;;22.10;99.90;;;;;;5078102;28;20437;-72
2023/09/20 11:29:04;;;;;;;1.38;1.10;;;22.20;99.90;;;;;;5080007;28;20476;-72
2023/09/20 11:31:32;;;;;;;3.38;1.30;;;22.30;99.90;;;;;;5063921;28;20033;-71
2023/09/20 11:34:00;;;;;;;2.75;1.10;;;22.30;99.90;;;;;;5079247;28;20031;-72
2023/09/20 11:36:29;;;;;;;3.97;1.42;;;22.30;99.90;;;;;;5070600;28;20077;-73
2023/09/20 11:38:54;;;;;;;3.47;1.17;;;22.40;99.90;;;;;;5079369;28;20017;-72
2023/09/20 11:41:24;;;;;;;3.65;1.20;;;22.50;99.90;;;;;;5071227;28;20041;-73
2023/09/20 11:44:08;;;;;;;1.83;0.98;;;22.60;99.90;;;;;;5086473;28;20032;-73
2023/09/20 11:46:34;;;;;;;4.53;1.17;;;22.70;99.90;;;;;;5070973;28;20020;-72
2023/09/20 11:49:05;;;;;;;2.17;1.10;;;22.50;99.90;;;;;;5064421;28;20032;-73
2023/09/20 11:51:43;;;;;;;3.05;1.17;;;22.70;99.90;;;;;;5075896;28;20024;-71
2023/09/20 11:54:11;;;;;;;6.30;1.45;;;22.60;99.90;;;;;;5067979;28;20033;-73
2023/09/20 11:56:37;;;;;;;3.72;1.10;;;22.70;99.90;;;;;;5075668;28;20077;-73
2023/09/20 11:59:11;;;;;;;4.22;1.42;;;22.90;99.90;;;;;;5076787;28;20032;-73
2023/09/20 12:01:43;;;;;;;2.25;0.93;;;23.00;99.90;;;;;;5074454;28;20073;-73
2023/09/20 12:04:09;;;;;;;3.00;1.48;;;23.00;99.90;;;;;;5072936;28;20123;-72
2023/09/20 12:06:35;;;;;;;2.15;1.40;;;22.90;99.90;;;;;;5068091;28;20983;-72
2023/09/20 12:09:03;;;;;;;6.07;1.40;;;22.90;99.90;;;;;;5079095;28;20431;-73
2023/09/20 12:11:28;;;;;;;3.55;1.33;;;22.80;99.90;;;;;;5072653;28;20061;-73
2023/09/20 12:13:54;;;;;;;3.38;1.30;;;22.90;99.90;;;;;;5072580;28;20052;-72
2023/09/20 12:16:23;;;;;;;4.88;1.65;;;22.80;99.90;;;;;;5082711;28;20511;-72
2023/09/20 12:18:50;;;;;;;1.90;1.30;;;22.70;99.90;;;;;;5069534;28;20025;-71
2023/09/20 12:21:16;;;;;;;2.95;1.23;;;22.70;99.90;;;;;;5077100;28;20031;-72
2023/09/20 12:23:42;;;;;;;2.50;1.23;;;22.60;99.90;;;;;;5071473;28;20024;-72
2023/09/20 12:26:08;;;;;;;3.20;1.40;;;22.70;99.90;;;;;;5074103;28;20077;-70
2023/09/20 12:28:35;;;;;;;4.72;1.30;;;22.70;99.90;;;;;;5077329;28;20366;-71
2023/09/20 12:31:01;;;;;;;3.97;1.45;;;22.60;99.90;;;;;;5074762;28;20066;-72
2023/09/20 12:33:27;;;;;;;4.07;1.30;;;22.80;99.90;;;;;;5071549;28;20032;-71
2023/09/20 12:35:59;;;;;;;4.68;1.30;;;22.80;99.90;;;;;;5071789;28;20036;-72
2023/09/20 12:38:29;;;;;;;4.73;1.33;;;23.00;99.90;;;;;;5070540;28;20377;-73
2023/09/20 12:40:56;;;;;;;2.20;1.20;;;23.00;99.90;;;;;;5080963;28;20052;-72
2023/09/20 12:43:22;;;;;;;6.28;1.30;;;22.90;99.90;;;;;;5065970;28;20413;-73
2023/09/20 12:45:47;;;;;;;2.85;1.20;;;22.90;99.90;;;;;;5076377;28;20036;-73
2023/09/20 12:48:13;;;;;;;4.60;1.50;;;22.80;99.90;;;;;;5075070;28;20021;-73
2023/09/20 12:50:41;;;;;;;2.72;1.08;;;22.70;99.90;;;;;;5077202;28;20048;-73
2023/09/20 12:53:08;;;;;;;4.55;1.48;;;22.80;99.90;;;;;;5069036;28;20118;-73
2023/09/20 12:55:37;;;;;;;4.15;1.20;;;22.80;99.90;;;;;;5075419;28;20078;-73
2023/09/20 12:58:07;;;;;;;5.65;1.52;;;22.70;99.90;;;;;;5085074;28;20052;-73
2023/09/20 13:00:42;;;;;;;2.95;1.60;;;23.00;99.90;;;;;;5078981;28;20040;-72
2023/09/20 13:03:08;;;;;;;3.40;1.60;;;23.00;99.90;;;;;;5070639;28;20047;-72
2023/09/20 13:05:37;;;;;;;2.25;1.33;;;23.00;99.90;;;;;;5072623;28;20029;-73
2023/09/20 13:08:04;;;;;;;2.63;1.25;;;23.00;99.90;;;;;;5081420;28;20033;-73
2023/09/20 13:10:32;;;;;;;5.55;1.10;;;22.90;99.90;;;;;;5068453;28;20074;-72
2023/09/20 13:12:58;;;;;;;3.65;1.10;;;22.90;99.90;;;;;;5078488;28;20028;-71
2023/09/20 13:15:24;;;;;;;4.45;1.77;;;22.70;99.90;;;;;;5074367;28;20542;-72
2023/09/20 13:17:52;;;;;;;2.53;1.10;;;22.80;99.90;;;;;;5081571;28;20020;-72
2023/09/20 13:20:18;;;;;;;1.88;0.98;;;22.80;99.90;;;;;;5076909;28;20046;-73
2023/09/20 13:22:52;;;;;;;2.97;1.10;;;22.70;99.90;;;;;;5072054;28;20041;-72
2023/09/20 13:25:19;;;;;;;3.42;1.17;;;22.70;99.90;;;;;;5079246;28;20028;-73
2023/09/20 13:27:47;;;;;;;6.57;1.50;;;22.70;99.90;;;;;;5073592;28;20065;-74